createdAt,value
2023-01-09T00:00:16.800Z,5.30
2023-01-09T00:02:16.722Z,5.40
2023-01-09T00:04:16.761Z,5.50
2023-01-09T00:06:16.642Z,5.50
2023-01-09T00:08:16.619Z,5.50
2023-01-09T00:10:16.740Z,5.60
2023-01-09T00:12:16.620Z,5.60
2023-01-09T00:14:16.650Z,5.60
2023-01-09T00:16:16.712Z,5.60
2023-01-09T00:18:16.638Z,5.70
2023-01-09T00:20:16.722Z,5.80
2023-01-09T00:22:16.600Z,5.80
2023-01-09T00:24:16.753Z,5.90
2023-01-09T00:26:16.627Z,5.90
2023-01-09T00:28:16.637Z,5.90
2023-01-09T00:30:16.626Z,5.90
2023-01-09T00:32:16.655Z,5.90
2023-01-09T00:34:16.608Z,5.90
2023-01-09T00:36:16.700Z,5.90
2023-01-09T00:38:16.632Z,5.90
2023-01-09T00:40:16.781Z,5.90
2023-01-09T00:42:16.748Z,5.90
2023-01-09T00:44:16.633Z,5.90
2023-01-09T00:46:16.776Z,5.90
2023-01-09T00:48:16.660Z,5.90
2023-01-09T00:50:16.649Z,6.00
2023-01-09T00:52:16.660Z,6.00
2023-01-09T00:54:46.637Z,6.00
2023-01-09T00:56:46.685Z,6.00
2023-01-09T00:58:46.629Z,6.10
2023-01-09T01:00:46.668Z,6.00
2023-01-09T01:02:46.751Z,6.00
2023-01-09T01:04:46.638Z,6.00
2023-01-09T01:06:46.655Z,6.00
2023-01-09T01:08:46.653Z,6.10
2023-01-09T01:10:46.675Z,6.00
2023-01-09T01:12:46.682Z,6.00
2023-01-09T01:14:46.683Z,6.10
2023-01-09T01:16:46.729Z,6.00
2023-01-09T01:18:46.645Z,6.00
2023-01-09T01:20:46.686Z,6.00
2023-01-09T01:22:46.696Z,6.00
2023-01-09T01:24:46.681Z,6.00
2023-01-09T01:26:46.643Z,6.00
2023-01-09T01:28:46.644Z,6.00
2023-01-09T01:30:46.733Z,6.00
2023-01-09T01:32:46.644Z,6.00
2023-01-09T01:34:47.791Z,6.00
2023-01-09T01:36:46.761Z,6.00
2023-01-09T01:38:46.874Z,6.00
2023-01-09T01:40:46.689Z,6.00
2023-01-09T01:42:46.740Z,6.00
2023-01-09T01:44:46.689Z,6.00
2023-01-09T01:46:46.711Z,6.00
2023-01-09T01:48:46.706Z,6.00
2023-01-09T01:50:46.738Z,6.00
2023-01-09T01:52:46.803Z,6.00
2023-01-09T01:54:46.771Z,6.00
2023-01-09T01:56:46.756Z,6.10
2023-01-09T01:58:46.766Z,6.20
2023-01-09T02:00:46.806Z,6.20
2023-01-09T02:02:46.866Z,6.20
2023-01-09T02:04:46.721Z,6.20
2023-01-09T02:06:46.789Z,6.20
2023-01-09T02:08:46.796Z,6.20
2023-01-09T02:10:46.744Z,6.20
2023-01-09T02:12:46.826Z,6.20
2023-01-09T02:14:46.787Z,6.20
2023-01-09T02:16:46.758Z,6.30
2023-01-09T02:18:46.740Z,6.30
2023-01-09T02:20:47.030Z,6.20
2023-01-09T02:24:46.777Z,6.30
2023-01-09T02:26:46.789Z,6.30
2023-01-09T02:28:46.792Z,6.30
2023-01-09T02:30:46.778Z,6.30
2023-01-09T02:32:56.839Z,6.20
2023-01-09T02:34:56.836Z,6.20
2023-01-09T02:36:56.850Z,6.20
2023-01-09T02:38:56.857Z,6.20
2023-01-09T02:40:56.867Z,6.20
2023-01-09T02:42:56.866Z,6.20
2023-01-09T02:44:56.879Z,6.20
2023-01-09T02:46:56.880Z,6.20
2023-01-09T02:48:56.845Z,6.10
2023-01-09T02:50:56.857Z,6.10
2023-01-09T02:52:56.948Z,6.10
2023-01-09T02:54:56.914Z,6.10
2023-01-09T02:56:56.877Z,6.10
2023-01-09T02:58:57.013Z,6.10
2023-01-09T03:00:57.017Z,6.10
2023-01-09T03:02:56.961Z,6.10
2023-01-09T03:04:56.867Z,6.10
2023-01-09T03:06:56.909Z,6.10
2023-01-09T03:08:56.853Z,6.10
2023-01-09T03:10:56.897Z,6.10
2023-01-09T03:12:58.912Z,6.10
2023-01-09T03:14:56.979Z,6.10
2023-01-09T03:17:27.074Z,6.10
2023-01-09T03:19:26.916Z,6.10
2023-01-09T03:21:26.869Z,6.10
2023-01-09T03:23:26.921Z,6.20
2023-01-09T03:25:26.966Z,6.30
2023-01-09T03:27:26.913Z,6.30
2023-01-09T03:29:28.887Z,6.30
2023-01-09T03:31:26.993Z,6.30
2023-01-09T03:33:27.025Z,6.30
2023-01-09T03:35:26.902Z,6.30
2023-01-09T03:37:26.940Z,6.20
2023-01-09T03:39:26.913Z,6.20
2023-01-09T03:41:26.912Z,6.30
2023-01-09T03:43:26.925Z,6.30
2023-01-09T03:45:27.046Z,6.20
2023-01-09T03:47:26.901Z,6.20
2023-01-09T03:49:26.896Z,6.20
2023-01-09T03:51:26.935Z,6.20
2023-01-09T03:53:26.956Z,6.20
2023-01-09T03:55:26.916Z,6.20
2023-01-09T03:57:27.139Z,6.20
2023-01-09T03:59:26.942Z,6.20
2023-01-09T04:01:27.209Z,6.20
2023-01-09T04:03:26.915Z,6.10
2023-01-09T04:05:26.901Z,6.10
2023-01-09T04:07:26.955Z,6.10
2023-01-09T04:09:27.083Z,6.10
2023-01-09T04:11:26.940Z,6.00
2023-01-09T04:13:26.980Z,6.00
2023-01-09T04:15:27.015Z,6.00
2023-01-09T04:17:26.931Z,6.00
2023-01-09T04:19:26.933Z,5.90
2023-01-09T04:21:26.932Z,5.90
2023-01-09T04:23:26.957Z,5.80
2023-01-09T04:25:26.993Z,5.80
2023-01-09T04:27:26.947Z,5.80
2023-01-09T04:29:27.062Z,5.80
2023-01-09T04:31:26.931Z,5.80
2023-01-09T04:33:26.937Z,5.80
2023-01-09T04:35:26.991Z,5.80
2023-01-09T04:37:26.980Z,5.80
2023-01-09T04:39:26.973Z,5.70
2023-01-09T04:41:26.958Z,5.60
2023-01-09T04:43:26.965Z,5.60
2023-01-09T04:45:26.988Z,5.60
2023-01-09T04:47:26.976Z,5.60
2023-01-09T04:49:26.935Z,5.60
2023-01-09T04:51:26.919Z,5.50
2023-01-09T04:53:26.974Z,5.50
2023-01-09T04:55:26.946Z,5.50
2023-01-09T04:57:26.989Z,5.50
2023-01-09T04:59:27.327Z,5.50
2023-01-09T05:01:57.106Z,5.50
2023-01-09T05:03:57.006Z,5.50
2023-01-09T05:05:56.975Z,5.40
2023-01-09T05:07:56.940Z,5.40
2023-01-09T05:09:56.931Z,5.40
2023-01-09T05:11:56.950Z,5.40
2023-01-09T05:13:56.924Z,5.40
2023-01-09T05:15:56.953Z,5.40
2023-01-09T05:17:56.961Z,5.30
2023-01-09T05:19:56.919Z,4.90
2023-01-09T05:21:57.022Z,4.90
2023-01-09T05:23:57.130Z,4.90
2023-01-09T05:25:56.923Z,4.90
2023-01-09T05:27:57.038Z,4.90
2023-01-09T05:29:57.161Z,4.80
2023-01-09T05:31:56.998Z,4.80
2023-01-09T05:33:56.960Z,4.70
2023-01-09T05:35:57.076Z,4.70
2023-01-09T05:37:57.048Z,4.70
2023-01-09T05:39:57.016Z,4.60
2023-01-09T05:41:57.059Z,4.60
2023-01-09T05:43:57.052Z,4.50
2023-01-09T05:45:56.990Z,4.50
2023-01-09T05:47:56.982Z,4.50
2023-01-09T05:49:56.954Z,4.50
2023-01-09T05:51:57.023Z,4.50
2023-01-09T05:53:57.137Z,4.50
2023-01-09T05:55:57.040Z,4.50
2023-01-09T05:57:57.088Z,4.50
2023-01-09T05:59:57.183Z,4.50
2023-01-09T06:01:58.304Z,4.50
2023-01-09T06:03:57.031Z,4.50
2023-01-09T06:05:56.979Z,4.50
2023-01-09T06:07:57.055Z,4.50
2023-01-09T06:09:56.980Z,4.50
2023-01-09T06:11:56.994Z,4.40
2023-01-09T06:13:56.993Z,4.40
2023-01-09T06:15:57.073Z,4.30
2023-01-09T06:17:57.011Z,4.30
2023-01-09T06:19:57.003Z,4.30
2023-01-09T06:21:57.047Z,4.20
2023-01-09T06:23:57.169Z,4.20
2023-01-09T06:25:57.008Z,4.20
2023-01-09T06:27:56.995Z,4.20
2023-01-09T06:29:56.992Z,4.20
2023-01-09T06:31:56.982Z,4.10
2023-01-09T06:33:56.991Z,4.20
2023-01-09T06:35:57.017Z,4.20
2023-01-09T06:37:57.087Z,4.20
2023-01-09T06:39:56.996Z,4.10
2023-01-09T06:41:56.979Z,4.10
2023-01-09T06:44:27.088Z,4.00
2023-01-09T06:46:27.271Z,3.90
2023-01-09T06:48:27.058Z,3.90
2023-01-09T06:50:26.997Z,3.90
2023-01-09T06:52:26.988Z,4.00
2023-01-09T06:54:28.726Z,3.90
2023-01-09T06:56:27.065Z,3.90
2023-01-09T06:58:27.070Z,3.90
2023-01-09T07:00:27.107Z,3.90
2023-01-09T07:02:27.012Z,3.90
2023-01-09T07:04:27.043Z,3.90
2023-01-09T07:06:27.031Z,3.70
2023-01-09T07:08:27.028Z,3.70
2023-01-09T07:10:27.019Z,3.70
2023-01-09T07:12:27.030Z,3.70
2023-01-09T07:14:27.113Z,3.70
2023-01-09T07:16:27.065Z,3.70
2023-01-09T07:18:27.019Z,3.70
2023-01-09T07:20:27.025Z,3.70
2023-01-09T07:22:27.033Z,3.80
2023-01-09T07:24:27.034Z,3.80
2023-01-09T07:26:27.104Z,3.80
2023-01-09T07:28:27.051Z,3.80
2023-01-09T07:30:27.003Z,3.80
2023-01-09T07:32:27.004Z,3.80
2023-01-09T07:34:27.043Z,3.80
2023-01-09T07:36:27.014Z,4.10
2023-01-09T07:38:27.116Z,4.10
2023-01-09T07:40:27.042Z,4.10
2023-01-09T07:42:27.076Z,4.10
2023-01-09T07:44:27.133Z,4.10
2023-01-09T07:46:27.179Z,4.10
2023-01-09T07:48:27.044Z,4.10
2023-01-09T07:50:27.169Z,4.10
2023-01-09T07:52:27.079Z,4.10
2023-01-09T07:54:27.045Z,4.30
2023-01-09T07:56:27.052Z,4.30
2023-01-09T07:58:27.044Z,4.30
2023-01-09T08:00:27.060Z,4.30
2023-01-09T08:02:27.039Z,4.30
2023-01-09T08:04:27.087Z,4.30
2023-01-09T08:06:27.295Z,4.30
2023-01-09T08:08:27.048Z,4.30
2023-01-09T08:10:27.057Z,4.30
2023-01-09T08:12:27.076Z,4.30
2023-01-09T08:14:27.089Z,4.30
2023-01-09T08:16:27.242Z,4.30
2023-01-09T08:18:27.056Z,4.50
2023-01-09T08:20:27.077Z,4.50
2023-01-09T08:22:27.098Z,4.40
2023-01-09T08:24:27.053Z,4.40
2023-01-09T08:26:27.160Z,4.60
2023-01-09T08:28:57.063Z,4.60
2023-01-09T08:30:57.028Z,4.60
2023-01-09T08:32:57.068Z,4.60
2023-01-09T08:34:57.103Z,4.60
2023-01-09T08:36:57.045Z,4.70
2023-01-09T08:38:57.101Z,4.70
2023-01-09T08:40:57.079Z,4.80
2023-01-09T08:42:57.048Z,4.80
2023-01-09T08:44:57.065Z,4.80
2023-01-09T08:46:57.076Z,4.90
2023-01-09T08:48:57.027Z,4.90
2023-01-09T08:50:57.049Z,4.90
2023-01-09T08:52:57.027Z,4.90
2023-01-09T08:54:57.146Z,4.90
2023-01-09T08:56:57.049Z,4.90
2023-01-09T08:58:57.160Z,4.90
2023-01-09T09:00:57.070Z,4.90
2023-01-09T09:02:57.281Z,4.90
2023-01-09T09:04:57.051Z,4.80
2023-01-09T09:06:57.225Z,4.70
2023-01-09T09:08:57.041Z,4.70
2023-01-09T09:10:57.059Z,4.80
2023-01-09T09:12:57.153Z,4.80
2023-01-09T09:14:57.218Z,4.70
2023-01-09T09:16:57.156Z,4.70
2023-01-09T09:18:57.075Z,4.70
2023-01-09T09:20:57.049Z,4.70
2023-01-09T09:22:57.210Z,4.70
2023-01-09T09:24:57.139Z,4.70
2023-01-09T09:26:57.211Z,4.60
2023-01-09T09:28:57.121Z,4.70
2023-01-09T09:30:57.147Z,4.70
2023-01-09T09:32:57.163Z,4.70
2023-01-09T09:34:57.107Z,4.70
2023-01-09T09:36:57.247Z,4.70
2023-01-09T09:38:57.193Z,4.70
2023-01-09T09:40:57.137Z,4.70
2023-01-09T09:42:57.160Z,4.70
2023-01-09T09:44:57.116Z,4.80
2023-01-09T09:48:57.107Z,4.80
2023-01-09T09:50:57.303Z,4.80
2023-01-09T09:54:57.202Z,4.90
2023-01-09T09:59:20.275Z,4.90
2023-01-09T10:01:20.142Z,5.10
2023-01-09T10:03:26.231Z,5.10
2023-01-09T10:05:20.158Z,5.10
2023-01-09T10:07:20.160Z,5.20
2023-01-09T10:09:20.154Z,5.20
2023-01-09T10:11:20.165Z,5.20
2023-01-09T10:13:20.280Z,5.20
2023-01-09T10:15:20.151Z,5.20
2023-01-09T10:17:20.196Z,5.30
2023-01-09T10:19:20.129Z,5.60
2023-01-09T10:21:20.150Z,5.60
2023-01-09T10:23:20.136Z,5.60
2023-01-09T10:25:20.145Z,5.60
2023-01-09T10:27:20.171Z,5.60
2023-01-09T10:29:20.124Z,5.60
2023-01-09T10:31:20.212Z,5.60
2023-01-09T10:33:20.155Z,5.60
2023-01-09T10:35:20.202Z,5.60
2023-01-09T10:37:20.309Z,5.60
2023-01-09T10:39:20.172Z,5.60
2023-01-09T10:41:20.163Z,5.60
2023-01-09T10:43:20.227Z,5.60
2023-01-09T10:45:20.157Z,5.80
2023-01-09T10:47:20.163Z,5.70
2023-01-09T10:49:20.166Z,5.70
2023-01-09T10:51:20.179Z,5.70
2023-01-09T10:53:20.217Z,5.70
2023-01-09T10:55:20.195Z,5.70
2023-01-09T10:57:20.164Z,5.70
2023-01-09T10:59:20.153Z,5.70
2023-01-09T11:01:20.284Z,5.70
2023-01-09T11:03:20.234Z,5.70
2023-01-09T11:05:20.182Z,6.00
2023-01-09T11:07:20.173Z,6.00
2023-01-09T11:09:20.179Z,6.00
2023-01-09T11:11:20.198Z,6.10
2023-01-09T11:13:20.217Z,6.10
2023-01-09T11:15:20.223Z,6.10
2023-01-09T11:17:20.227Z,6.10
2023-01-09T11:19:20.191Z,6.20
2023-01-09T11:21:20.199Z,6.20
2023-01-09T11:23:20.165Z,6.00
2023-01-09T11:25:20.189Z,6.00
2023-01-09T11:27:20.207Z,6.00
2023-01-09T11:29:20.179Z,6.00
2023-01-09T11:31:20.197Z,6.10
2023-01-09T11:33:20.229Z,6.20
2023-01-09T11:35:50.227Z,6.20
2023-01-09T11:37:50.189Z,6.20
2023-01-09T11:39:50.176Z,6.30
2023-01-09T11:41:50.219Z,6.40
2023-01-09T11:43:50.297Z,6.40
2023-01-09T11:46:00.184Z,6.70
2023-01-09T11:47:50.244Z,6.70
2023-01-09T11:49:51.366Z,6.80
2023-01-09T11:51:50.188Z,7.00
2023-01-09T11:53:50.210Z,6.90
2023-01-09T11:55:50.211Z,6.90
2023-01-09T11:57:50.196Z,6.80
2023-01-09T11:59:50.198Z,6.70
2023-01-09T12:01:50.236Z,6.60
2023-01-09T12:03:50.206Z,6.40
2023-01-09T12:05:50.242Z,6.40
2023-01-09T12:07:50.216Z,6.40
2023-01-09T12:09:50.210Z,6.40
2023-01-09T12:11:50.310Z,6.40
2023-01-09T12:13:50.215Z,6.40
2023-01-09T12:15:50.416Z,6.40
2023-01-09T12:17:50.262Z,6.50
2023-01-09T12:19:50.230Z,6.40
2023-01-09T12:21:50.221Z,6.40
2023-01-09T12:23:50.222Z,6.40
2023-01-09T12:25:50.210Z,6.40
2023-01-09T12:27:50.235Z,6.40
2023-01-09T12:29:50.354Z,6.40
2023-01-09T12:31:50.245Z,6.30
2023-01-09T12:33:50.260Z,6.30
2023-01-09T12:35:50.227Z,6.70
2023-01-09T12:37:50.210Z,7.10
2023-01-09T12:39:50.212Z,7.30
2023-01-09T12:41:50.268Z,7.50
2023-01-09T12:43:50.246Z,7.50
2023-01-09T12:45:50.242Z,7.60
2023-01-09T12:47:50.255Z,7.70
2023-01-09T12:49:50.220Z,7.50
2023-01-09T12:51:50.352Z,7.50
2023-01-09T12:53:50.255Z,7.20
2023-01-09T12:55:50.313Z,7.10
2023-01-09T12:57:50.243Z,7.00
2023-01-09T12:59:50.273Z,6.80
2023-01-09T13:01:50.426Z,6.80
2023-01-09T13:03:50.468Z,6.50
2023-01-09T13:05:50.373Z,6.50
2023-01-09T13:07:50.496Z,6.20
2023-01-09T13:09:50.289Z,6.20
2023-01-09T13:11:50.316Z,6.20
2023-01-09T13:13:50.328Z,6.30
2023-01-09T13:15:50.359Z,6.30
2023-01-09T13:17:50.264Z,6.10
2023-01-09T13:19:50.291Z,6.10
2023-01-09T13:21:50.295Z,6.20
2023-01-09T13:23:50.321Z,6.20
2023-01-09T13:26:20.420Z,6.20
2023-01-09T13:28:20.393Z,6.10
2023-01-09T13:30:20.260Z,6.00
2023-01-09T13:32:20.307Z,6.00
2023-01-09T13:34:22.434Z,6.00
2023-01-09T13:36:20.274Z,5.90
2023-01-09T13:38:20.319Z,5.90
2023-01-09T13:40:20.433Z,5.90
2023-01-09T13:42:20.263Z,5.80
2023-01-09T13:44:20.290Z,5.80
2023-01-09T13:46:20.271Z,5.80
2023-01-09T13:48:20.273Z,5.80
2023-01-09T13:50:20.433Z,6.20
2023-01-09T13:52:20.268Z,6.20
2023-01-09T13:54:20.352Z,6.20
2023-01-09T13:56:22.770Z,6.20
2023-01-09T13:58:20.266Z,6.00
2023-01-09T14:00:20.277Z,5.90
2023-01-09T14:02:20.464Z,5.90
2023-01-09T14:04:20.297Z,5.80
2023-01-09T14:06:20.313Z,5.70
2023-01-09T14:08:21.379Z,5.70
2023-01-09T14:10:20.325Z,5.70
2023-01-09T14:12:20.393Z,5.70
2023-01-09T14:14:20.282Z,5.70
2023-01-09T14:16:20.342Z,5.30
2023-01-09T14:18:20.280Z,5.30
2023-01-09T14:20:20.411Z,5.30
2023-01-09T14:24:20.302Z,5.20
2023-01-09T14:26:20.331Z,5.20
2023-01-09T14:28:20.394Z,5.10
2023-01-09T14:30:20.479Z,5.10
2023-01-09T14:32:20.498Z,5.10
2023-01-09T14:34:30.184Z,4.70
2023-01-09T14:36:20.302Z,4.50
2023-01-09T14:38:20.313Z,4.30
2023-01-09T14:40:20.377Z,4.30
2023-01-09T14:42:20.316Z,4.10
2023-01-09T14:44:20.321Z,3.90
2023-01-09T14:46:20.427Z,3.70
2023-01-09T14:48:20.428Z,3.50
2023-01-09T14:50:20.332Z,3.50
2023-01-09T14:52:20.321Z,3.50
2023-01-09T14:54:20.318Z,3.50
2023-01-09T14:56:20.316Z,3.50
2023-01-09T14:58:20.283Z,3.50
2023-01-09T15:00:20.500Z,3.50
2023-01-09T15:02:22.755Z,3.50
2023-01-09T15:04:20.315Z,3.50
2023-01-09T15:06:20.348Z,3.50
2023-01-09T15:08:20.282Z,3.50
2023-01-09T15:10:20.334Z,3.70
2023-01-09T15:12:50.378Z,3.70
2023-01-09T15:14:50.308Z,3.70
2023-01-09T15:16:50.617Z,3.70
2023-01-09T15:18:50.312Z,3.70
2023-01-09T15:20:50.328Z,3.70
2023-01-09T15:22:52.757Z,3.70
2023-01-09T15:24:50.372Z,3.70
2023-01-09T15:26:50.484Z,3.70
2023-01-09T15:28:50.335Z,3.70
2023-01-09T15:30:50.413Z,3.70
2023-01-09T15:32:50.544Z,3.70
2023-01-09T15:34:50.363Z,3.10
2023-01-09T15:36:50.395Z,3.10
2023-01-09T15:38:50.384Z,3.10
2023-01-09T15:40:50.388Z,3.10
2023-01-09T15:42:50.325Z,2.90
2023-01-09T15:44:50.342Z,2.90
2023-01-09T15:46:50.419Z,2.90
2023-01-09T15:48:50.331Z,2.90
2023-01-09T15:50:50.408Z,2.90
2023-01-09T15:52:50.398Z,2.90
2023-01-09T15:54:50.423Z,2.90
2023-01-09T15:56:50.342Z,2.90
2023-01-09T15:58:50.361Z,2.90
2023-01-09T16:00:50.491Z,2.90
2023-01-09T16:02:50.537Z,2.90
2023-01-09T16:04:50.608Z,2.90
2023-01-09T16:06:50.387Z,2.80
2023-01-09T16:08:50.437Z,2.70
2023-01-09T16:10:50.421Z,2.70
2023-01-09T16:12:50.419Z,2.70
2023-01-09T16:14:50.476Z,2.70
2023-01-09T16:16:50.609Z,2.70
2023-01-09T16:18:50.509Z,2.70
2023-01-09T16:20:50.392Z,2.70
2023-01-09T16:22:50.458Z,2.70
2023-01-09T16:24:50.454Z,2.90
2023-01-09T16:26:50.561Z,2.90
2023-01-09T16:28:50.536Z,2.90
2023-01-09T16:30:50.899Z,3.10
2023-01-09T16:32:50.478Z,3.10
2023-01-09T16:34:50.583Z,3.10
2023-01-09T16:38:50.504Z,3.30
2023-01-09T16:40:50.497Z,3.40
2023-01-09T16:42:50.550Z,3.40
2023-01-09T16:44:50.463Z,3.40
2023-01-09T16:48:50.500Z,3.50
2023-01-09T16:50:50.573Z,3.60
2023-01-09T16:55:01.666Z,3.70
2023-01-09T16:57:01.589Z,3.80
2023-01-09T16:59:01.586Z,3.80
2023-01-09T17:01:01.706Z,3.80
2023-01-09T17:03:01.545Z,3.80
2023-01-09T17:05:01.549Z,3.80
2023-01-09T17:07:01.544Z,3.70
2023-01-09T17:09:01.692Z,3.70
2023-01-09T17:11:01.576Z,3.70
2023-01-09T17:13:01.610Z,3.70
2023-01-09T17:15:03.413Z,3.10
2023-01-09T17:17:05.356Z,3.00
2023-01-09T17:19:01.544Z,2.90
2023-01-09T17:21:01.609Z,2.90
2023-01-09T17:23:01.579Z,2.80
2023-01-09T17:25:01.583Z,2.70
2023-01-09T17:27:01.598Z,2.70
2023-01-09T17:29:01.635Z,2.70
2023-01-09T17:31:01.720Z,2.60
2023-01-09T17:33:01.609Z,2.50
2023-01-09T17:35:31.732Z,2.50
2023-01-09T17:37:31.583Z,2.50
2023-01-09T17:39:31.625Z,2.50
2023-01-09T17:41:31.591Z,2.50
2023-01-09T17:43:31.625Z,2.50
2023-01-09T17:45:31.703Z,2.50
2023-01-09T17:47:31.667Z,2.60
2023-01-09T17:49:31.576Z,2.60
2023-01-09T17:51:31.545Z,2.60
2023-01-09T17:53:31.570Z,2.60
2023-01-09T17:55:31.629Z,2.60
2023-01-09T17:57:31.667Z,2.60
2023-01-09T17:59:31.574Z,2.70
2023-01-09T18:01:31.767Z,2.70
2023-01-09T18:03:31.705Z,2.60
2023-01-09T18:05:31.570Z,2.70
2023-01-09T18:07:31.595Z,2.60
2023-01-09T18:09:31.639Z,2.60
2023-01-09T18:11:31.657Z,2.60
2023-01-09T18:13:31.642Z,2.60
2023-01-09T18:15:31.608Z,2.70
2023-01-09T18:17:31.667Z,2.70
2023-01-09T18:19:31.595Z,2.70
2023-01-09T18:21:31.771Z,2.70
2023-01-09T18:23:31.608Z,2.70
2023-01-09T18:25:31.677Z,2.70
2023-01-09T18:27:31.691Z,2.70
2023-01-09T18:29:31.672Z,2.70
2023-01-09T18:31:31.640Z,2.70
2023-01-09T18:33:31.553Z,2.70
2023-01-09T18:35:31.637Z,2.70
2023-01-09T18:37:31.620Z,2.60
2023-01-09T18:39:31.731Z,2.60
2023-01-09T18:41:31.801Z,2.70
2023-01-09T18:43:31.674Z,2.70
2023-01-09T18:45:32.672Z,2.70
2023-01-09T18:47:31.577Z,2.70
2023-01-09T18:49:31.551Z,2.70
2023-01-09T18:51:31.638Z,2.70
2023-01-09T18:53:31.582Z,2.70
2023-01-09T18:55:31.590Z,2.70
2023-01-09T18:57:31.586Z,2.70
2023-01-09T18:59:31.544Z,2.70
2023-01-09T19:01:31.732Z,2.80
2023-01-09T19:03:31.661Z,2.80
2023-01-09T19:05:31.639Z,2.80
2023-01-09T19:07:31.613Z,2.80
2023-01-09T19:09:31.643Z,2.90
2023-01-09T19:11:31.555Z,2.90
2023-01-09T19:13:31.664Z,2.90
2023-01-09T19:15:31.701Z,2.90
2023-01-09T19:17:31.592Z,2.90
2023-01-09T19:20:01.606Z,3.00
2023-01-09T19:22:01.620Z,3.10
2023-01-09T19:24:01.658Z,3.10
2023-01-09T19:26:01.767Z,3.10
2023-01-09T19:28:01.681Z,3.10
2023-01-09T19:30:01.722Z,3.10
2023-01-09T19:32:01.727Z,3.10
2023-01-09T19:34:01.687Z,3.10
2023-01-09T19:36:01.657Z,3.10
2023-01-09T19:38:01.706Z,3.10
2023-01-09T19:40:01.674Z,3.10
2023-01-09T19:42:01.670Z,3.10
2023-01-09T19:44:01.712Z,3.10
2023-01-09T19:46:01.883Z,3.10
2023-01-09T19:48:01.624Z,3.10
2023-01-09T19:50:03.353Z,3.10
2023-01-09T19:52:01.636Z,3.10
2023-01-09T19:56:01.717Z,3.00
2023-01-09T19:58:01.741Z,3.00
2023-01-09T20:00:01.620Z,3.00
2023-01-09T20:02:01.746Z,2.90
2023-01-09T20:04:01.685Z,2.90
2023-01-09T20:06:02.638Z,2.90
2023-01-09T20:08:01.665Z,2.80
2023-01-09T20:10:01.690Z,2.80
2023-01-09T20:12:01.728Z,2.80
2023-01-09T20:14:01.745Z,2.80
2023-01-09T20:16:01.757Z,2.60
2023-01-09T20:18:01.623Z,2.60
2023-01-09T20:20:01.680Z,2.50
2023-01-09T20:22:01.587Z,2.50
2023-01-09T20:24:01.676Z,2.50
2023-01-09T20:26:01.652Z,2.50
2023-01-09T20:28:01.809Z,2.50
2023-01-09T20:30:01.624Z,2.50
2023-01-09T20:32:01.838Z,2.50
2023-01-09T20:34:01.657Z,2.50
2023-01-09T20:36:01.654Z,2.50
2023-01-09T20:38:01.703Z,2.50
2023-01-09T20:40:01.712Z,2.40
2023-01-09T20:42:01.785Z,2.40
2023-01-09T20:44:01.776Z,2.30
2023-01-09T20:46:01.724Z,2.30
2023-01-09T20:48:01.852Z,2.30
2023-01-09T20:50:01.746Z,2.30
2023-01-09T20:52:01.724Z,2.30
2023-01-09T20:54:01.640Z,2.20
2023-01-09T20:56:02.001Z,2.20
2023-01-09T20:58:01.778Z,2.20
2023-01-09T21:00:01.732Z,2.20
2023-01-09T21:02:31.673Z,2.20
2023-01-09T21:04:31.673Z,2.20
2023-01-09T21:06:31.679Z,2.20
2023-01-09T21:08:31.712Z,2.20
2023-01-09T21:10:31.752Z,2.20
2023-01-09T21:12:31.723Z,2.20
2023-01-09T21:14:31.780Z,2.20
2023-01-09T21:16:31.754Z,2.20
2023-01-09T21:18:31.721Z,2.20
2023-01-09T21:20:31.690Z,2.20
2023-01-09T21:22:31.712Z,2.20
2023-01-09T21:24:31.684Z,2.20
2023-01-09T21:26:31.782Z,2.20
2023-01-09T21:28:31.768Z,2.20
2023-01-09T21:30:31.748Z,2.30
2023-01-09T21:32:31.704Z,2.30
2023-01-09T21:34:31.692Z,2.30
2023-01-09T21:36:31.844Z,2.30
2023-01-09T21:38:31.724Z,2.30
2023-01-09T21:40:31.738Z,2.30
2023-01-09T21:42:31.747Z,2.30
2023-01-09T21:44:31.746Z,2.40
2023-01-09T21:46:31.697Z,2.40
2023-01-09T21:48:31.663Z,2.40
2023-01-09T21:50:31.667Z,2.40
2023-01-09T21:52:31.714Z,2.40
2023-01-09T21:54:31.707Z,2.40
2023-01-09T21:56:31.751Z,2.10
2023-01-09T21:58:31.664Z,2.10
2023-01-09T22:00:31.818Z,2.10
2023-01-09T22:02:31.735Z,2.10
2023-01-09T22:04:31.701Z,2.10
2023-01-09T22:06:31.768Z,2.10
2023-01-09T22:08:31.743Z,2.10
2023-01-09T22:10:31.775Z,2.10
2023-01-09T22:12:31.789Z,2.10
2023-01-09T22:14:31.790Z,2.10
2023-01-09T22:16:31.853Z,2.10
2023-01-09T22:18:31.739Z,2.10
2023-01-09T22:20:31.776Z,2.10
2023-01-09T22:22:31.717Z,2.10
2023-01-09T22:24:31.729Z,2.10
2023-01-09T22:26:31.768Z,2.10
2023-01-09T22:28:31.683Z,2.10
2023-01-09T22:30:31.832Z,2.10
2023-01-09T22:32:31.716Z,2.50
2023-01-09T22:34:31.726Z,2.50
2023-01-09T22:36:31.825Z,2.50
2023-01-09T22:38:31.767Z,2.50
2023-01-09T22:40:31.785Z,2.50
2023-01-09T22:42:31.786Z,2.30
2023-01-09T22:44:31.850Z,2.30
2023-01-09T22:46:31.720Z,2.30
2023-01-09T22:49:01.744Z,2.30
2023-01-09T22:51:01.708Z,2.30
2023-01-09T22:53:01.661Z,2.30
2023-01-09T22:55:01.765Z,2.30
2023-01-09T22:57:01.856Z,2.30
2023-01-09T22:59:01.774Z,2.30
2023-01-09T23:01:02.149Z,2.30
2023-01-09T23:03:01.760Z,2.30
2023-01-09T23:05:01.743Z,2.30
2023-01-09T23:07:01.746Z,2.30
2023-01-09T23:09:01.789Z,2.30
2023-01-09T23:11:01.769Z,2.30
2023-01-09T23:13:01.794Z,2.50
2023-01-09T23:15:01.706Z,2.50
2023-01-09T23:17:01.710Z,2.50
2023-01-09T23:19:01.714Z,2.50
2023-01-09T23:21:01.706Z,2.60
2023-01-09T23:23:01.701Z,2.60
2023-01-09T23:25:01.690Z,2.60
2023-01-09T23:27:01.718Z,2.60
2023-01-09T23:29:01.751Z,2.60
2023-01-09T23:31:01.705Z,2.60
2023-01-09T23:33:01.719Z,2.60
2023-01-09T23:35:01.725Z,2.60
2023-01-09T23:37:01.766Z,2.50
2023-01-09T23:39:01.717Z,2.50
2023-01-09T23:41:01.792Z,2.50
2023-01-09T23:43:01.911Z,2.50
2023-01-09T23:47:10.442Z,2.50
2023-01-09T23:49:10.578Z,2.50
2023-01-09T23:51:10.506Z,2.50
2023-01-09T23:53:10.497Z,2.60
2023-01-09T23:55:10.457Z,2.60
2023-01-09T23:57:10.379Z,2.60
2023-01-09T23:59:10.429Z,2.60
